createdAt,value
2024-04-24T00:01:43.744Z,99315.53
2024-04-24T00:04:13.723Z,99313.81
2024-04-24T00:06:46.088Z,99307.81
2024-04-24T00:09:16.095Z,99313.78
2024-04-24T00:11:46.003Z,99312.09
2024-04-24T00:14:15.961Z,99308.66
2024-04-24T00:16:45.866Z,99306.13
2024-04-24T00:19:15.623Z,99304.41
2024-04-24T00:21:48.193Z,99306.09
2024-04-24T00:24:18.525Z,99303.56
2024-04-24T00:26:48.414Z,99298.47
2024-04-24T00:29:18.417Z,99289.94
2024-04-24T00:31:48.281Z,99289.94
2024-04-24T00:34:18.047Z,99291.63
2024-04-24T00:36:50.676Z,99283.09
2024-04-24T00:39:20.421Z,99288.16
2024-04-24T00:41:50.192Z,99284.78
2024-04-24T00:44:20.147Z,99286.47
2024-04-24T00:46:50.713Z,99288.16
2024-04-24T00:49:21.424Z,99282.19
2024-04-24T00:51:54.708Z,99283.06
2024-04-24T00:54:26.364Z,99281.31
2024-04-24T00:56:56.321Z,99280.44
2024-04-24T00:59:26.867Z,99274.47
2024-04-24T01:01:57.069Z,99267.66
2024-04-24T01:04:27.215Z,99267.66
2024-04-24T01:06:59.701Z,99269.38
2024-04-24T01:09:29.507Z,99265.97
2024-04-24T01:11:59.311Z,99263.41
2024-04-24T01:14:29.213Z,99259.16
2024-04-24T01:16:59.801Z,99263.38
2024-04-24T01:19:47.846Z,99256.56
2024-04-24T01:22:42.189Z,99252.31
2024-04-24T01:25:18.770Z,99257.41
2024-04-24T01:27:51.571Z,99253.97
2024-04-24T01:30:21.572Z,99248.88
2024-04-24T01:32:51.627Z,99241.16
2024-04-24T01:35:21.534Z,99242.88
2024-04-24T01:37:51.373Z,99237.78
2024-04-24T01:40:21.212Z,99235.19
2024-04-24T01:42:54.038Z,99238.63
2024-04-24T01:45:23.904Z,99236.06
2024-04-24T01:47:53.870Z,99233.47
2024-04-24T01:50:23.896Z,99231.78
2024-04-24T01:52:53.729Z,99231.78
2024-04-24T01:55:23.539Z,99234.28
2024-04-24T01:57:56.008Z,99230.00
2024-04-24T02:00:25.810Z,99229.16
2024-04-24T02:02:53.238Z,99229.19
2024-04-24T02:05:23.344Z,99229.16
2024-04-24T02:07:53.267Z,99227.44
2024-04-24T02:10:23.110Z,99223.16
2024-04-24T02:12:55.683Z,99226.56
2024-04-24T02:15:25.555Z,99229.97
2024-04-24T02:17:55.395Z,99224.84
2024-04-24T02:20:25.278Z,99224.84
2024-04-24T02:22:55.210Z,99221.41
2024-04-24T02:25:38.025Z,99217.19
2024-04-24T02:28:12.438Z,99215.44
2024-04-24T02:30:42.266Z,99212.84
2024-04-24T02:33:12.235Z,99216.28
2024-04-24T02:35:42.180Z,99211.97
2024-04-24T02:38:12.177Z,99212.00
2024-04-24T02:40:42.212Z,99213.69
2024-04-24T02:43:14.701Z,99214.53
2024-04-24T02:45:44.635Z,99215.41
2024-04-24T02:48:14.598Z,99209.41
2024-04-24T02:50:41.848Z,99206.78
2024-04-24T02:53:11.638Z,99205.16
2024-04-24T02:55:41.450Z,99194.91
2024-04-24T02:58:11.200Z,99203.44
2024-04-24T03:00:43.600Z,99198.22
2024-04-24T03:03:13.447Z,99194.03
2024-04-24T03:05:43.264Z,99193.16
2024-04-24T03:08:13.091Z,99198.31
2024-04-24T03:10:42.849Z,99191.50
2024-04-24T03:13:12.657Z,99197.47
2024-04-24T03:15:45.068Z,99191.50
2024-04-24T03:18:14.928Z,99187.22
2024-04-24T03:20:44.816Z,99191.47
2024-04-24T03:23:14.644Z,99194.88
2024-04-24T03:25:44.505Z,99195.75
2024-04-24T03:28:14.324Z,99187.22
2024-04-24T03:30:46.840Z,99193.22
2024-04-24T03:33:16.708Z,99192.31
2024-04-24T03:35:46.589Z,99185.50
2024-04-24T03:38:16.671Z,99180.44
2024-04-24T03:40:46.576Z,99178.72
2024-04-24T03:43:16.483Z,99183.84
2024-04-24T03:45:48.961Z,99177.88
2024-04-24T03:48:16.293Z,99178.72
2024-04-24T03:50:46.113Z,99177.84
2024-04-24T03:53:16.004Z,99170.19
2024-04-24T03:55:45.842Z,99177.84
2024-04-24T03:58:15.735Z,99173.63
2024-04-24T04:00:48.559Z,99177.00
2024-04-24T04:03:18.426Z,99177.88
2024-04-24T04:05:48.204Z,99175.31
2024-04-24T04:08:18.123Z,99176.16
2024-04-24T04:10:47.962Z,99177.84
2024-04-24T04:13:17.879Z,99180.41
2024-04-24T04:15:50.228Z,99175.31
2024-04-24T04:18:20.080Z,99176.13
2024-04-24T04:20:49.908Z,99177.84
2024-04-24T04:23:19.728Z,99177.03
2024-04-24T04:25:49.544Z,99173.63
2024-04-24T04:28:19.337Z,99178.72
2024-04-24T04:30:54.961Z,99184.75
2024-04-24T04:33:24.796Z,99188.13
2024-04-24T04:35:54.774Z,99183.03
2024-04-24T04:38:24.640Z,99185.56
2024-04-24T04:40:54.579Z,99182.19
2024-04-24T04:43:24.555Z,99183.03
2024-04-24T04:45:56.998Z,99180.47
2024-04-24T04:48:27.041Z,99177.13
2024-04-24T04:50:56.938Z,99180.50
2024-04-24T04:53:26.895Z,99175.38
2024-04-24T04:55:56.699Z,99181.34
2024-04-24T04:58:26.651Z,99167.72
2024-04-24T05:00:59.146Z,99160.91
2024-04-24T05:03:28.988Z,99160.06
2024-04-24T05:06:00.506Z,99158.34
2024-04-24T05:08:30.380Z,99156.69
2024-04-24T05:11:00.439Z,99159.22
2024-04-24T05:13:30.300Z,99160.06
2024-04-24T05:16:03.154Z,99165.19
2024-04-24T05:18:33.118Z,99166.06
2024-04-24T05:21:03.168Z,99168.59
2024-04-24T05:23:34.648Z,99167.75
2024-04-24T05:26:27.003Z,99170.34
2024-04-24T05:29:07.941Z,99175.38
2024-04-24T05:31:41.298Z,99174.56
2024-04-24T05:34:11.136Z,99173.66
2024-04-24T05:36:41.028Z,99172.84
2024-04-24T05:39:10.939Z,99172.00
2024-04-24T05:41:40.748Z,99176.25
2024-04-24T05:44:10.614Z,99172.00
2024-04-24T05:46:43.219Z,99166.06
2024-04-24T05:49:13.024Z,99167.75
2024-04-24T05:51:43.058Z,99167.78
2024-04-24T05:54:12.947Z,99166.09
2024-04-24T05:56:42.695Z,99169.50
2024-04-24T05:59:12.652Z,99170.38
2024-04-24T06:01:45.047Z,99175.47
2024-04-24T06:04:14.834Z,99163.59
2024-04-24T06:06:44.603Z,99173.81
2024-04-24T06:09:14.388Z,99171.31
2024-04-24T06:11:44.275Z,99173.00
2024-04-24T06:14:14.228Z,99167.94
2024-04-24T06:16:46.661Z,99165.41
2024-04-24T06:19:16.474Z,99156.88
2024-04-24T06:21:46.281Z,99162.81
2024-04-24T06:24:16.271Z,99166.19
2024-04-24T06:26:46.630Z,99166.22
2024-04-24T06:29:16.592Z,99171.34
2024-04-24T06:31:49.179Z,99171.34
2024-04-24T06:34:19.018Z,99170.53
2024-04-24T06:36:49.480Z,99168.81
2024-04-24T06:39:19.296Z,99171.41
2024-04-24T06:41:49.386Z,99163.75
2024-04-24T06:44:19.250Z,99162.91
2024-04-24T06:46:51.753Z,99167.19
2024-04-24T06:49:21.545Z,99167.19
2024-04-24T06:51:52.065Z,99162.97
2024-04-24T06:54:21.913Z,99170.66
2024-04-24T06:56:51.729Z,99169.81
2024-04-24T06:59:21.670Z,99171.50
2024-04-24T07:01:54.279Z,99171.53
2024-04-24T07:04:25.483Z,99168.97
2024-04-24T07:06:55.269Z,99171.53
2024-04-24T07:09:25.190Z,99165.59
2024-04-24T07:11:55.239Z,99168.16
2024-04-24T07:14:25.242Z,99164.75
2024-04-24T07:16:57.736Z,99161.34
2024-04-24T07:19:27.553Z,99158.81
2024-04-24T07:21:57.304Z,99160.53
2024-04-24T07:24:27.174Z,99151.16
2024-04-24T07:26:56.973Z,99152.00
2024-04-24T07:29:26.875Z,99151.16
2024-04-24T07:31:59.610Z,99153.72
2024-04-24T07:34:29.456Z,99152.00
2024-04-24T07:36:59.314Z,99148.59
2024-04-24T07:39:29.106Z,99152.88
2024-04-24T07:41:58.859Z,99152.88
2024-04-24T07:44:28.713Z,99152.88
2024-04-24T07:47:04.192Z,99150.34
2024-04-24T07:49:34.702Z,99157.19
2024-04-24T07:52:05.246Z,99153.78
2024-04-24T07:54:36.582Z,99157.16
2024-04-24T07:57:06.622Z,99157.19
2024-04-24T07:59:36.556Z,99156.28
2024-04-24T08:02:09.335Z,99157.16
2024-04-24T08:04:39.231Z,99159.69
2024-04-24T08:07:09.055Z,99164.81
2024-04-24T08:09:38.814Z,99176.75
2024-04-24T08:12:10.518Z,99173.34
2024-04-24T08:14:38.183Z,99166.53
2024-04-24T08:17:10.816Z,99167.38
2024-04-24T08:19:40.646Z,99169.97
2024-04-24T08:22:10.595Z,99169.13
2024-04-24T08:24:40.424Z,99161.47
2024-04-24T08:27:10.214Z,99160.59
2024-04-24T08:29:40.038Z,99170.03
2024-04-24T08:32:12.683Z,99161.53
2024-04-24T08:34:42.500Z,99162.41
2024-04-24T08:37:12.369Z,99165.88
2024-04-24T08:39:42.145Z,99167.56
2024-04-24T08:42:12.945Z,99166.72
2024-04-24T08:44:44.652Z,99167.59
2024-04-24T08:47:20.103Z,99167.59
2024-04-24T08:49:51.934Z,99166.72
2024-04-24T08:52:25.616Z,99171.84
2024-04-24T08:54:59.932Z,99171.84
2024-04-24T08:57:31.456Z,99176.06
2024-04-24T09:00:03.625Z,99179.50
2024-04-24T09:02:42.172Z,99175.25
2024-04-24T09:05:14.854Z,99176.06
2024-04-24T09:07:46.073Z,99185.44
2024-04-24T09:10:16.639Z,99179.44
2024-04-24T09:12:48.317Z,99187.13
2024-04-24T09:15:18.325Z,99184.53
2024-04-24T09:17:50.976Z,99185.38
2024-04-24T09:20:22.430Z,99182.84
2024-04-24T09:22:52.306Z,99176.78
2024-04-24T09:25:22.179Z,99178.56
2024-04-24T09:27:52.255Z,99181.13
2024-04-24T09:30:23.974Z,99181.09
2024-04-24T09:32:57.555Z,99184.53
2024-04-24T09:35:27.602Z,99187.03
2024-04-24T09:37:57.632Z,99184.47
2024-04-24T09:40:28.674Z,99187.84
2024-04-24T09:42:58.780Z,99187.00
2024-04-24T09:45:31.046Z,99190.38
2024-04-24T09:48:03.586Z,99192.06
2024-04-24T09:50:36.360Z,99188.63
2024-04-24T09:53:06.473Z,99192.06
2024-04-24T09:55:41.532Z,99186.88
2024-04-24T09:58:12.068Z,99191.91
2024-04-24T10:00:42.043Z,99192.75
2024-04-24T10:03:15.735Z,99191.88
2024-04-24T10:08:25.104Z,99190.94
2024-04-24T10:10:58.895Z,99194.31
2024-04-24T10:13:31.741Z,99197.72
2024-04-24T10:16:05.907Z,99201.06
2024-04-24T10:18:39.136Z,99202.78
2024-04-24T10:21:10.460Z,99208.69
2024-04-24T10:23:42.407Z,99194.19
2024-04-24T10:26:13.129Z,99200.19
2024-04-24T10:28:47.198Z,99196.75
2024-04-24T10:31:18.654Z,99204.41
2024-04-24T10:33:52.330Z,99195.81
2024-04-24T10:36:22.376Z,99188.16
2024-04-24T10:38:57.768Z,99195.00
2024-04-24T10:41:28.326Z,99188.16
2024-04-24T10:43:59.411Z,99200.03
2024-04-24T10:46:29.713Z,99194.91
2024-04-24T10:49:03.166Z,99193.13
2024-04-24T10:51:34.659Z,99190.56
2024-04-24T10:54:15.327Z,99194.81
2024-04-24T10:56:46.356Z,99188.00
2024-04-24T10:59:16.586Z,99204.16
2024-04-24T11:01:53.263Z,99219.47
2024-04-24T11:04:28.389Z,99216.03
2024-04-24T11:06:58.734Z,99218.47
2024-04-24T11:09:28.974Z,99222.69
2024-04-24T11:12:00.763Z,99231.19
2024-04-24T11:14:41.168Z,99223.47
2024-04-24T11:17:11.626Z,99225.22
2024-04-24T11:19:44.056Z,99224.34
2024-04-24T11:22:13.900Z,99231.97
2024-04-24T11:24:44.317Z,99235.41
2024-04-24T11:27:14.388Z,99232.81
2024-04-24T11:29:44.303Z,99237.03
2024-04-24T11:32:15.013Z,99237.88
2024-04-24T11:34:47.632Z,99242.94
2024-04-24T11:37:17.992Z,99235.31
2024-04-24T11:39:47.885Z,99237.00
2024-04-24T11:42:17.778Z,99242.16
2024-04-24T11:44:47.611Z,99249.84
2024-04-24T11:47:20.502Z,99237.06
2024-04-24T11:49:56.306Z,99243.06
2024-04-24T11:52:27.425Z,99243.09
2024-04-24T11:54:57.202Z,99248.19
2024-04-24T11:57:27.014Z,99257.44
2024-04-24T11:59:58.905Z,99254.88
2024-04-24T12:02:30.011Z,99244.63
2024-04-24T12:05:06.747Z,99259.97
2024-04-24T12:07:37.251Z,99254.06
2024-04-24T12:10:08.320Z,99249.00
2024-04-24T12:12:38.295Z,99250.59
2024-04-24T12:15:08.954Z,99248.16
2024-04-24T12:17:38.759Z,99246.59
2024-04-24T12:20:11.854Z,99249.13
2024-04-24T12:22:41.843Z,99250.88
2024-04-24T12:25:11.648Z,99243.28
2024-04-24T12:27:41.515Z,99232.22
2024-04-24T12:30:11.931Z,99234.75
2024-04-24T12:32:41.905Z,99233.91
2024-04-24T12:35:14.463Z,99236.50
2024-04-24T12:37:44.258Z,99238.22
2024-04-24T12:40:15.481Z,99244.25
2024-04-24T12:42:45.342Z,99230.66
2024-04-24T12:45:15.094Z,99223.91
2024-04-24T12:47:46.641Z,99232.50
2024-04-24T12:50:19.505Z,99235.94
2024-04-24T12:52:49.461Z,99234.19
2024-04-24T12:55:19.444Z,99245.13
2024-04-24T12:57:49.302Z,99250.16
2024-04-24T13:00:20.510Z,99239.03
2024-04-24T13:02:51.072Z,99245.88
2024-04-24T13:05:23.637Z,99253.53
2024-04-24T13:07:53.463Z,99249.28
2024-04-24T13:10:23.288Z,99248.28
2024-04-24T13:12:53.023Z,99254.22
2024-04-24T13:15:22.791Z,99252.44
2024-04-24T13:17:52.718Z,99260.00
2024-04-24T13:20:25.292Z,99253.31
2024-04-24T13:22:55.099Z,99265.19
2024-04-24T13:25:25.490Z,99263.53
2024-04-24T13:27:55.322Z,99266.94
2024-04-24T13:30:25.128Z,99277.88
2024-04-24T13:32:55.024Z,99277.88
2024-04-24T13:35:27.526Z,99272.56
2024-04-24T13:37:57.484Z,99281.16
2024-04-24T13:40:27.375Z,99277.78
2024-04-24T13:42:57.165Z,99286.22
2024-04-24T13:45:26.946Z,99283.59
2024-04-24T13:47:56.897Z,99283.59
2024-04-24T13:50:29.579Z,99280.16
2024-04-24T13:52:59.466Z,99280.97
2024-04-24T13:55:29.345Z,99285.28
2024-04-24T13:57:59.210Z,99288.66
2024-04-24T14:00:30.652Z,99289.44
2024-04-24T14:03:01.526Z,99284.25
2024-04-24T14:05:34.267Z,99284.25
2024-04-24T14:08:04.182Z,99280.97
2024-04-24T14:10:34.006Z,99277.66
2024-04-24T14:13:03.780Z,99280.88
2024-04-24T14:15:33.517Z,99283.47
2024-04-24T14:18:03.520Z,99286.09
2024-04-24T14:20:36.065Z,99285.25
2024-04-24T14:23:06.059Z,99281.03
2024-04-24T14:25:36.186Z,99280.16
2024-04-24T14:28:06.184Z,99278.47
2024-04-24T14:30:35.998Z,99264.78
2024-04-24T14:33:05.946Z,99269.75
2024-04-24T14:35:38.461Z,99270.50
2024-04-24T14:38:10.271Z,99260.31
2024-04-24T14:40:40.244Z,99267.00
2024-04-24T14:43:10.124Z,99261.94
2024-04-24T14:45:39.967Z,99267.25
2024-04-24T14:48:10.709Z,99269.94
2024-04-24T14:50:43.430Z,99272.53
2024-04-24T14:53:13.697Z,99271.69
2024-04-24T14:55:43.692Z,99270.84
2024-04-24T14:58:32.104Z,99277.66
2024-04-24T15:01:05.660Z,99281.09
2024-04-24T15:03:35.840Z,99284.50
2024-04-24T15:06:08.436Z,99282.81
2024-04-24T15:08:38.315Z,99281.06
2024-04-24T15:11:08.241Z,99282.72
2024-04-24T15:13:39.716Z,99287.66
2024-04-24T15:16:10.651Z,99281.44
2024-04-24T15:18:40.540Z,99292.44
2024-04-24T15:21:13.005Z,99297.47
2024-04-24T15:23:42.761Z,99287.22
2024-04-24T15:26:16.850Z,99288.84
2024-04-24T15:28:46.777Z,99283.72
2024-04-24T15:31:16.659Z,99280.22
2024-04-24T15:33:46.954Z,99281.09
2024-04-24T15:36:19.756Z,99286.28
2024-04-24T15:38:49.646Z,99289.63
2024-04-24T15:41:19.960Z,99304.81
2024-04-24T15:43:49.748Z,99302.97
2024-04-24T15:46:19.532Z,99310.56
2024-04-24T15:48:49.512Z,99293.44
2024-04-24T15:51:21.976Z,99284.16
2024-04-24T15:53:51.809Z,99291.97
2024-04-24T15:56:21.646Z,99282.56
2024-04-24T15:58:52.638Z,99285.00
2024-04-24T16:01:22.467Z,99295.16
2024-04-24T16:03:52.350Z,99292.59
2024-04-24T16:06:28.070Z,99299.38
2024-04-24T16:08:57.857Z,99302.78
2024-04-24T16:11:27.683Z,99296.75
2024-04-24T16:13:57.598Z,99293.34
2024-04-24T16:16:27.371Z,99298.41
2024-04-24T16:18:57.509Z,99298.41
2024-04-24T16:21:30.415Z,99311.09
2024-04-24T16:24:00.338Z,99314.47
2024-04-24T16:26:30.325Z,99318.69
2024-04-24T16:29:00.487Z,99328.13
2024-04-24T16:31:30.385Z,99326.28
2024-04-24T16:34:00.391Z,99333.03
2024-04-24T16:36:32.893Z,99336.31
2024-04-24T16:39:02.837Z,99331.31
2024-04-24T16:41:33.029Z,99337.28
2024-04-24T16:44:04.413Z,99327.97
2024-04-24T16:46:34.586Z,99328.88
2024-04-24T16:49:04.855Z,99319.59
2024-04-24T16:51:41.822Z,99327.22
2024-04-24T16:54:12.112Z,99323.03
2024-04-24T16:56:42.487Z,99314.66
2024-04-24T16:59:12.501Z,99318.03
2024-04-24T17:01:42.685Z,99310.28
2024-04-24T17:04:13.239Z,99309.41
2024-04-24T17:06:46.613Z,99321.31
2024-04-24T17:09:18.115Z,99311.13
2024-04-24T17:11:49.255Z,99323.78
2024-04-24T17:14:19.930Z,99339.91
2024-04-24T17:16:50.011Z,99334.81
2024-04-24T17:19:21.208Z,99337.25
2024-04-24T17:21:54.847Z,99331.38
2024-04-24T17:24:26.426Z,99338.13
2024-04-24T17:26:57.910Z,99337.22
2024-04-24T17:29:29.546Z,99331.34
2024-04-24T17:32:00.512Z,99344.13
2024-04-24T17:34:30.817Z,99349.09
2024-04-24T17:37:07.460Z,99349.16
2024-04-24T17:39:38.876Z,99351.69
2024-04-24T17:42:10.062Z,99361.03
2024-04-24T17:44:40.883Z,99359.34
2024-04-24T17:47:16.786Z,99359.25
2024-04-24T17:49:48.667Z,99364.34
2024-04-24T17:52:23.941Z,99360.22
2024-04-24T17:54:56.854Z,99361.00
2024-04-24T17:57:40.202Z,99366.94
2024-04-24T18:00:12.170Z,99364.34
2024-04-24T18:02:43.651Z,99362.66
2024-04-24T18:05:15.108Z,99364.31
2024-04-24T18:07:49.301Z,99375.41
2024-04-24T18:10:21.836Z,99376.25
2024-04-24T18:12:53.105Z,99379.63
2024-04-24T18:15:24.948Z,99374.66
2024-04-24T18:17:56.151Z,99389.03
2024-04-24T18:20:27.847Z,99388.97
2024-04-24T18:23:00.044Z,99389.81
2024-04-24T18:25:34.055Z,99399.13
2024-04-24T18:28:05.929Z,99405.09
2024-04-24T18:30:42.946Z,99416.16
2024-04-24T18:33:17.459Z,99425.44
2024-04-24T18:35:50.316Z,99432.25
2024-04-24T18:38:26.013Z,99431.34
2024-04-24T18:40:58.010Z,99436.47
2024-04-24T18:43:32.452Z,99440.72
2024-04-24T18:46:03.281Z,99452.63
2024-04-24T18:48:36.250Z,99448.31
2024-04-24T18:51:12.529Z,99453.38
2024-04-24T18:53:47.572Z,99461.84
2024-04-24T18:56:20.660Z,99471.13
2024-04-24T18:58:53.787Z,99466.13
2024-04-24T19:01:24.891Z,99473.81
2024-04-24T19:03:58.855Z,99468.72
2024-04-24T19:06:35.495Z,99469.44
2024-04-24T19:09:11.563Z,99477.06
2024-04-24T19:11:45.481Z,99476.25
2024-04-24T19:14:17.341Z,99484.66
2024-04-24T19:16:49.738Z,99491.53
2024-04-24T19:19:21.586Z,99487.22
2024-04-24T19:21:53.886Z,99495.59
2024-04-24T19:24:29.029Z,99489.56
2024-04-24T19:27:00.894Z,99483.66
2024-04-24T19:29:33.707Z,99491.38
2024-04-24T19:32:05.614Z,99493.81
2024-04-24T19:34:39.328Z,99502.28
2024-04-24T19:37:10.327Z,99499.78
2024-04-24T19:39:43.909Z,99503.91
2024-04-24T19:42:16.472Z,99505.53
2024-04-24T19:44:50.228Z,99504.63
2024-04-24T19:47:22.668Z,99513.19
2024-04-24T19:49:53.776Z,99514.09
2024-04-24T19:52:25.750Z,99519.19
2024-04-24T19:54:59.437Z,99520.75
2024-04-24T19:57:31.818Z,99519.13
2024-04-24T20:00:06.180Z,99520.84
2024-04-24T20:02:40.625Z,99530.16
2024-04-24T20:05:13.892Z,99525.09
2024-04-24T20:07:49.344Z,99528.38
2024-04-24T20:10:24.444Z,99531.75
2024-04-24T20:12:58.334Z,99529.16
2024-04-24T20:15:29.193Z,99531.75
2024-04-24T20:18:00.817Z,99531.78
2024-04-24T20:20:32.340Z,99523.25
2024-04-24T20:23:04.476Z,99530.06
2024-04-24T20:25:37.792Z,99518.16
2024-04-24T20:28:08.864Z,99530.84
2024-04-24T20:30:38.892Z,99525.69
2024-04-24T20:33:10.940Z,99527.38
2024-04-24T20:38:12.504Z,99524.00
2024-04-24T20:40:45.008Z,99518.00
2024-04-24T20:43:14.981Z,99514.66
2024-04-24T20:45:44.878Z,99517.19
2024-04-24T20:48:14.776Z,99511.19
2024-04-24T20:50:44.770Z,99514.59
2024-04-24T20:53:14.788Z,99515.41
2024-04-24T20:55:47.169Z,99513.69
2024-04-24T20:58:17.052Z,99514.53
2024-04-24T21:00:46.947Z,99513.69
2024-04-24T21:03:17.246Z,99520.44
2024-04-24T21:05:47.129Z,99514.50
2024-04-24T21:08:17.215Z,99523.16
2024-04-24T21:10:49.893Z,99526.66
2024-04-24T21:13:21.402Z,99530.00
2024-04-24T21:15:53.408Z,99527.31
2024-04-24T21:18:24.993Z,99533.22
2024-04-24T21:20:55.172Z,99538.25
2024-04-24T21:23:25.055Z,99540.84
2024-04-24T21:26:02.114Z,99545.06
2024-04-24T21:28:32.005Z,99542.47
2024-04-24T21:31:04.398Z,99549.19
2024-04-24T21:33:34.824Z,99539.88
2024-04-24T21:36:04.967Z,99542.38
2024-04-24T21:38:36.093Z,99543.91
2024-04-24T21:41:20.765Z,99548.16
2024-04-24T21:43:50.934Z,99548.91
2024-04-24T21:46:21.418Z,99549.75
2024-04-24T21:48:51.367Z,99547.25
2024-04-24T21:51:21.223Z,99542.25
2024-04-24T21:53:52.873Z,99548.16
2024-04-24T21:56:26.913Z,99544.75
2024-04-24T21:58:57.175Z,99548.97
2024-04-24T22:01:26.951Z,99549.84
2024-04-24T22:03:57.530Z,99554.06
2024-04-24T22:06:29.165Z,99551.47
2024-04-24T22:08:58.946Z,99557.41
2024-04-24T22:11:31.490Z,99554.81
2024-04-24T22:16:31.275Z,99556.50
2024-04-24T22:19:01.975Z,99569.16
2024-04-24T22:21:32.824Z,99562.44
2024-04-24T22:24:02.743Z,99560.59
2024-04-24T22:26:35.374Z,99563.94
2024-04-24T22:29:05.180Z,99558.69
2024-04-24T22:31:35.060Z,99569.78
2024-04-24T22:34:04.830Z,99565.50
2024-04-24T22:36:34.640Z,99563.03
2024-04-24T22:39:04.452Z,99563.84
2024-04-24T22:41:36.917Z,99562.16
2024-04-24T22:44:06.907Z,99564.66
2024-04-24T22:46:36.801Z,99559.53
2024-04-24T22:49:06.562Z,99555.28
2024-04-24T22:51:36.405Z,99563.63
2024-04-24T22:54:06.227Z,99545.78
2024-04-24T22:56:40.075Z,99555.97
2024-04-24T22:59:09.928Z,99547.44
2024-04-24T23:01:39.840Z,99550.84
2024-04-24T23:04:10.566Z,99550.09
2024-04-24T23:06:40.437Z,99548.34
2024-04-24T23:09:10.224Z,99544.91
2024-04-24T23:11:42.798Z,99544.88
2024-04-24T23:14:12.970Z,99544.94
2024-04-24T23:16:42.811Z,99540.69
2024-04-24T23:19:10.085Z,99544.94
2024-04-24T23:21:39.908Z,99542.38
2024-04-24T23:24:10.056Z,99537.28
2024-04-24T23:26:46.102Z,99544.94
2024-04-24T23:29:16.111Z,99530.56
2024-04-24T23:31:46.043Z,99541.59
2024-04-24T23:34:15.840Z,99528.72
2024-04-24T23:36:45.656Z,99525.31
2024-04-24T23:39:15.674Z,99525.22
2024-04-24T23:41:48.113Z,99519.25
2024-04-24T23:44:17.912Z,99519.25
2024-04-24T23:46:48.886Z,99517.50
2024-04-24T23:49:18.919Z,99519.19
2024-04-24T23:51:48.767Z,99521.63
2024-04-24T23:54:18.610Z,99522.50
2024-04-24T23:56:50.989Z,99519.94
2024-04-24T23:59:20.780Z,99514.84
